createdAt,value
2022-07-28T00:00:27.307Z,22.40
2022-07-28T00:02:53.312Z,22.40
2022-07-28T00:05:19.345Z,22.54
2022-07-28T00:07:45.838Z,22.54
2022-07-28T00:10:11.785Z,22.36
2022-07-28T00:12:37.775Z,22.45
2022-07-28T00:15:04.510Z,22.17
2022-07-28T00:17:31.121Z,22.15
2022-07-28T00:19:57.183Z,22.12
2022-07-28T00:22:24.112Z,22.15
2022-07-28T00:24:50.095Z,22.26
2022-07-28T00:27:18.902Z,22.36
2022-07-28T00:29:50.236Z,22.35
2022-07-28T00:32:16.729Z,22.29
2022-07-28T00:34:42.817Z,22.24
2022-07-28T00:37:08.784Z,22.18
2022-07-28T00:39:39.491Z,22.09
2022-07-28T00:42:05.423Z,22.27
2022-07-28T00:44:31.373Z,22.21
2022-07-28T00:46:57.414Z,22.13
2022-07-28T00:49:23.431Z,22.21
2022-07-28T00:51:49.415Z,22.27
2022-07-28T00:54:15.689Z,22.26
2022-07-28T00:56:42.000Z,22.10
2022-07-28T00:59:07.929Z,22.14
2022-07-28T01:01:33.971Z,22.07
2022-07-28T01:03:59.956Z,22.11
2022-07-28T01:06:25.903Z,21.96
2022-07-28T01:08:51.892Z,21.90
2022-07-28T01:11:18.319Z,21.74
2022-07-28T01:13:44.959Z,21.97
2022-07-28T01:16:11.921Z,21.19
2022-07-28T01:18:38.250Z,21.50
2022-07-28T01:21:04.991Z,21.47
2022-07-28T01:23:31.875Z,21.62
2022-07-28T01:25:57.828Z,21.58
2022-07-28T01:28:23.766Z,21.52
2022-07-28T01:30:49.810Z,21.75
2022-07-28T01:33:15.810Z,21.83
2022-07-28T01:35:41.759Z,21.84
2022-07-28T01:38:07.739Z,21.72
2022-07-28T01:40:33.679Z,21.89
2022-07-28T01:42:59.616Z,21.72
2022-07-28T01:45:25.600Z,21.84
2022-07-28T01:47:51.895Z,21.59
2022-07-28T01:50:17.888Z,21.42
2022-07-28T01:52:44.126Z,21.39
2022-07-28T01:55:10.064Z,21.59
2022-07-28T01:57:36.031Z,21.53
2022-07-28T02:00:02.020Z,21.70
2022-07-28T02:02:27.977Z,21.17
2022-07-28T02:04:54.691Z,21.23
2022-07-28T02:07:21.599Z,21.17
2022-07-28T02:09:47.555Z,21.00
2022-07-28T02:12:13.512Z,21.25
2022-07-28T02:14:39.707Z,21.20
2022-07-28T02:17:05.655Z,21.29
2022-07-28T02:19:31.596Z,21.33
2022-07-28T02:21:57.587Z,21.08
2022-07-28T02:24:24.258Z,21.14
2022-07-28T02:26:50.217Z,21.38
2022-07-28T02:29:33.865Z,21.62
2022-07-28T02:32:02.148Z,21.18
2022-07-28T02:34:28.175Z,21.38
2022-07-28T02:36:54.138Z,21.36
2022-07-28T02:39:21.073Z,21.61
2022-07-28T02:41:47.069Z,21.58
2022-07-28T02:44:13.234Z,21.67
2022-07-28T02:46:39.405Z,21.80
2022-07-28T02:49:05.510Z,21.41
2022-07-28T02:51:31.500Z,21.17
2022-07-28T02:53:57.445Z,21.24
2022-07-28T02:56:23.432Z,21.27
2022-07-28T02:58:49.381Z,21.70
2022-07-28T03:01:15.703Z,21.66
2022-07-28T03:03:44.119Z,21.55
2022-07-28T03:06:10.214Z,21.77
2022-07-28T03:08:36.165Z,21.72
2022-07-28T03:11:02.153Z,21.68
2022-07-28T03:13:28.096Z,21.36
2022-07-28T03:15:54.041Z,21.45
2022-07-28T03:18:20.042Z,21.44
2022-07-28T03:20:45.979Z,21.27
2022-07-28T03:23:11.913Z,21.07
2022-07-28T03:25:37.896Z,21.06
2022-07-28T03:28:03.849Z,20.95
2022-07-28T03:30:29.837Z,21.20
2022-07-28T03:32:55.843Z,20.98
2022-07-28T03:35:21.796Z,21.05
2022-07-28T03:37:47.725Z,21.30
2022-07-28T03:40:13.702Z,21.39
2022-07-28T03:42:40.209Z,21.48
2022-07-28T03:45:06.950Z,21.45
2022-07-28T03:47:33.755Z,21.42
2022-07-28T03:49:59.746Z,21.41
2022-07-28T03:52:26.045Z,21.53
2022-07-28T03:54:52.094Z,21.79
2022-07-28T03:57:18.027Z,21.78
2022-07-28T03:59:43.969Z,21.99
2022-07-28T04:02:10.042Z,21.88
2022-07-28T04:04:36.002Z,22.06
2022-07-28T04:07:01.963Z,22.09
2022-07-28T04:09:27.944Z,22.31
2022-07-28T04:11:53.884Z,22.49
2022-07-28T04:14:20.098Z,22.51
2022-07-28T04:16:46.510Z,22.71
2022-07-28T04:19:12.526Z,22.67
2022-07-28T04:21:38.467Z,22.55
2022-07-28T04:24:04.478Z,22.64
2022-07-28T04:26:30.426Z,22.64
2022-07-28T04:28:56.388Z,22.59
2022-07-28T04:31:22.485Z,22.19
2022-07-28T04:33:48.486Z,22.29
2022-07-28T04:36:14.427Z,22.33
2022-07-28T04:38:40.411Z,22.27
2022-07-28T04:41:06.351Z,22.34
2022-07-28T04:43:32.292Z,22.66
2022-07-28T04:45:58.359Z,22.73
2022-07-28T04:48:25.075Z,22.68
2022-07-28T04:50:51.799Z,22.62
2022-07-28T04:53:18.739Z,22.65
2022-07-28T04:55:44.713Z,22.77
2022-07-28T04:58:10.706Z,22.98
2022-07-28T05:00:37.121Z,22.97
2022-07-28T05:03:03.079Z,22.99
2022-07-28T05:05:29.024Z,22.70
2022-07-28T05:07:55.007Z,22.55
2022-07-28T05:10:20.955Z,22.84
2022-07-28T05:12:46.903Z,23.06
2022-07-28T05:15:13.733Z,23.34
2022-07-28T05:17:40.489Z,23.49
2022-07-28T05:20:07.123Z,23.56
2022-07-28T05:22:33.153Z,23.60
2022-07-28T05:24:59.433Z,23.23
2022-07-28T05:27:25.378Z,22.66
2022-07-28T05:29:51.821Z,22.98
2022-07-28T05:32:18.235Z,23.05
2022-07-28T05:34:44.420Z,23.18
2022-07-28T05:37:10.397Z,23.32
2022-07-28T05:39:36.342Z,23.23
2022-07-28T05:42:02.312Z,23.18
2022-07-28T05:44:28.308Z,23.11
2022-07-28T05:46:55.127Z,23.15
2022-07-28T05:49:21.130Z,23.48
2022-07-28T05:51:47.241Z,23.71
2022-07-28T05:54:13.418Z,23.79
2022-07-28T05:56:39.601Z,23.59
2022-07-28T05:59:05.579Z,23.78
2022-07-28T06:01:31.593Z,23.91
2022-07-28T06:04:25.713Z,23.98
2022-07-28T06:06:43.554Z,23.68
2022-07-28T06:09:09.519Z,23.95
2022-07-28T06:11:35.450Z,24.02
2022-07-28T06:14:01.522Z,24.25
2022-07-28T06:16:27.789Z,24.36
2022-07-28T06:18:53.857Z,24.40
2022-07-28T06:21:19.853Z,24.48
2022-07-28T06:23:46.049Z,24.53
2022-07-28T06:26:12.018Z,24.55
2022-07-28T06:28:38.285Z,24.68
2022-07-28T06:31:04.296Z,24.77
2022-07-28T06:33:30.239Z,24.74
2022-07-28T06:35:56.241Z,24.89
2022-07-28T06:38:22.575Z,24.92
2022-07-28T06:40:49.232Z,25.06
2022-07-28T06:43:16.274Z,25.23
2022-07-28T06:45:43.005Z,25.57
2022-07-28T06:48:09.745Z,25.54
2022-07-28T06:50:36.696Z,25.72
2022-07-28T06:53:03.334Z,25.95
2022-07-28T06:55:35.244Z,25.81
2022-07-28T06:58:02.656Z,25.80
2022-07-28T07:00:29.327Z,25.70
2022-07-28T07:02:55.931Z,26.08
2022-07-28T07:05:22.221Z,26.07
2022-07-28T07:07:48.615Z,26.04
2022-07-28T07:10:15.140Z,26.04
2022-07-28T07:12:41.801Z,26.18
2022-07-28T07:15:08.254Z,26.27
2022-07-28T07:17:34.363Z,26.51
2022-07-28T07:20:00.899Z,26.68
2022-07-28T07:22:28.058Z,26.49
2022-07-28T07:24:57.132Z,26.50
2022-07-28T07:27:24.743Z,26.93
2022-07-28T07:29:51.301Z,27.12
2022-07-28T07:32:17.547Z,27.01
2022-07-28T07:34:44.362Z,27.08
2022-07-28T07:37:10.876Z,27.09
2022-07-28T07:39:37.522Z,27.29
2022-07-28T07:42:04.285Z,27.39
2022-07-28T07:44:30.775Z,27.00
2022-07-28T07:46:57.356Z,27.28
2022-07-28T07:49:24.238Z,27.30
2022-07-28T07:51:50.622Z,27.32
2022-07-28T07:54:17.598Z,27.44
2022-07-28T07:56:45.402Z,27.17
2022-07-28T07:59:12.210Z,27.52
2022-07-28T08:01:40.469Z,27.75
2022-07-28T08:04:07.792Z,27.98
2022-07-28T08:06:34.844Z,27.86
2022-07-28T08:09:02.298Z,28.05
2022-07-28T08:11:29.310Z,28.14
2022-07-28T08:13:55.574Z,28.29
2022-07-28T08:16:22.312Z,28.34
2022-07-28T08:18:49.090Z,28.77
2022-07-28T08:21:15.449Z,28.94
2022-07-28T08:23:41.658Z,28.80
2022-07-28T08:26:08.685Z,29.18
2022-07-28T08:28:35.321Z,28.96
2022-07-28T08:31:01.858Z,28.87
2022-07-28T08:33:28.728Z,29.21
2022-07-28T08:35:55.179Z,29.38
2022-07-28T08:38:21.569Z,29.64
2022-07-28T08:40:48.304Z,29.13
2022-07-28T08:43:14.949Z,30.19
2022-07-28T08:45:42.297Z,30.17
2022-07-28T08:48:09.787Z,29.42
2022-07-28T08:50:36.558Z,30.03
2022-07-28T08:53:03.039Z,29.19
2022-07-28T08:55:32.036Z,29.87
2022-07-28T08:57:59.073Z,29.77
2022-07-28T09:00:25.523Z,29.54
2022-07-28T09:02:52.540Z,30.54
2022-07-28T09:05:19.297Z,30.08
2022-07-28T09:07:45.539Z,29.95
2022-07-28T09:10:12.235Z,29.88
2022-07-28T09:12:38.836Z,30.14
2022-07-28T09:15:05.563Z,30.38
2022-07-28T09:17:32.365Z,30.52
2022-07-28T09:19:58.780Z,30.30
2022-07-28T09:22:25.558Z,29.63
2022-07-28T09:24:52.040Z,29.48
2022-07-28T09:27:18.486Z,29.28
2022-07-28T09:29:45.140Z,29.50
2022-07-28T09:32:12.085Z,30.29
2022-07-28T09:34:38.828Z,30.56
2022-07-28T09:37:05.528Z,29.82
2022-07-28T09:39:32.427Z,29.94
2022-07-28T09:41:59.096Z,29.69
2022-07-28T09:44:26.247Z,30.17
2022-07-28T09:46:53.216Z,30.51
2022-07-28T09:49:22.812Z,30.51
2022-07-28T09:51:51.867Z,30.66
2022-07-28T09:54:19.028Z,30.83
2022-07-28T09:56:45.937Z,30.39
2022-07-28T09:59:12.843Z,30.75
2022-07-28T10:01:41.835Z,31.09
2022-07-28T10:04:07.802Z,31.62
2022-07-28T10:06:34.161Z,31.41
2022-07-28T10:09:00.737Z,31.94
2022-07-28T10:11:27.426Z,32.66
2022-07-28T10:13:53.801Z,32.81
2022-07-28T10:16:21.034Z,32.99
2022-07-28T10:18:47.199Z,32.95
2022-07-28T10:21:13.913Z,33.36
2022-07-28T10:23:40.567Z,33.80
2022-07-28T10:26:06.566Z,33.64
2022-07-28T10:28:42.313Z,33.49
2022-07-28T10:31:08.944Z,33.17
2022-07-28T10:33:35.359Z,33.63
2022-07-28T10:36:02.079Z,33.88
2022-07-28T10:38:28.478Z,34.12
2022-07-28T10:40:55.080Z,34.21
2022-07-28T10:43:21.505Z,33.83
2022-07-28T10:46:05.081Z,32.85
2022-07-28T10:48:32.072Z,33.24
2022-07-28T10:50:58.895Z,33.20
2022-07-28T10:53:25.508Z,33.30
2022-07-28T10:55:53.269Z,33.10
2022-07-28T10:58:25.075Z,33.29
2022-07-28T11:01:05.540Z,32.45
2022-07-28T11:03:33.157Z,32.30
2022-07-28T11:06:00.200Z,32.87
2022-07-28T11:08:27.522Z,32.57
2022-07-28T11:10:58.912Z,33.21
2022-07-28T11:13:33.877Z,34.21
2022-07-28T11:16:00.747Z,34.48
2022-07-28T11:18:28.577Z,33.79
2022-07-28T11:20:56.384Z,33.45
2022-07-28T11:23:25.463Z,33.78
2022-07-28T11:25:57.066Z,33.49
2022-07-28T11:28:23.798Z,33.67
2022-07-28T11:30:50.611Z,33.74
2022-07-28T11:33:16.935Z,33.67
2022-07-28T11:35:43.560Z,33.87
2022-07-28T11:38:10.190Z,34.59
2022-07-28T11:40:36.360Z,33.82
2022-07-28T11:43:02.889Z,33.50
2022-07-28T11:45:38.813Z,34.23
2022-07-28T11:48:07.632Z,33.73
2022-07-28T11:53:24.912Z,34.24
2022-07-28T11:56:02.544Z,33.67
2022-07-28T11:58:29.460Z,34.10
2022-07-28T12:00:55.911Z,34.09
2022-07-28T12:03:26.125Z,33.55
2022-07-28T12:06:04.635Z,33.07
2022-07-28T12:08:31.823Z,33.99
2022-07-28T12:10:57.853Z,34.69
2022-07-28T12:13:24.325Z,34.32
2022-07-28T12:15:50.379Z,33.89
2022-07-28T12:18:16.372Z,34.35
2022-07-28T12:20:43.107Z,35.15
2022-07-28T12:23:14.949Z,35.56
2022-07-28T12:25:40.930Z,35.59
2022-07-28T12:28:07.067Z,35.28
2022-07-28T12:30:33.930Z,34.28
2022-07-28T12:33:00.870Z,34.03
2022-07-28T12:35:27.871Z,34.54
2022-07-28T12:37:54.245Z,33.90
2022-07-28T12:40:27.608Z,34.23
2022-07-28T12:42:53.969Z,34.89
2022-07-28T12:45:20.718Z,35.11
2022-07-28T12:47:47.170Z,35.40
2022-07-28T12:50:13.947Z,35.96
2022-07-28T12:52:40.146Z,35.18
2022-07-28T12:55:06.619Z,34.76
2022-07-28T12:57:33.376Z,34.43
2022-07-28T12:59:59.903Z,34.14
2022-07-28T13:02:26.251Z,34.05
2022-07-28T13:04:53.678Z,34.12
2022-07-28T13:07:20.162Z,34.31
2022-07-28T13:09:50.163Z,34.13
2022-07-28T13:12:20.122Z,34.24
2022-07-28T13:14:46.781Z,33.90
2022-07-28T13:17:12.730Z,34.54
2022-07-28T13:19:39.637Z,35.11
2022-07-28T13:22:09.357Z,35.31
2022-07-28T13:24:36.076Z,35.93
2022-07-28T13:27:03.641Z,35.14
2022-07-28T13:29:30.249Z,33.78
2022-07-28T13:31:56.984Z,33.95
2022-07-28T13:34:23.724Z,34.76
2022-07-28T13:36:50.422Z,35.01
2022-07-28T13:39:16.888Z,35.40
2022-07-28T13:41:57.401Z,35.62
2022-07-28T13:44:25.408Z,35.29
2022-07-28T13:46:51.880Z,34.58
2022-07-28T13:49:17.877Z,33.48
2022-07-28T13:51:48.173Z,33.68
2022-07-28T13:54:14.966Z,34.19
2022-07-28T13:56:41.475Z,35.08
2022-07-28T13:59:08.759Z,35.02
2022-07-28T14:01:35.636Z,35.56
2022-07-28T14:04:03.312Z,35.47
2022-07-28T14:06:29.502Z,35.54
2022-07-28T14:08:56.503Z,35.40
2022-07-28T14:11:22.830Z,35.11
2022-07-28T14:13:49.340Z,34.90
2022-07-28T14:16:16.029Z,35.23
2022-07-28T14:18:42.452Z,34.60
2022-07-28T14:21:08.425Z,35.15
2022-07-28T14:23:34.683Z,35.41
2022-07-28T14:26:25.175Z,35.57
2022-07-28T14:28:47.572Z,36.00
2022-07-28T14:31:13.575Z,36.00
2022-07-28T14:33:45.583Z,35.85
2022-07-28T14:36:12.512Z,35.32
2022-07-28T14:38:54.594Z,35.18
2022-07-28T14:41:20.670Z,35.00
2022-07-28T14:43:46.606Z,34.47
2022-07-28T14:46:17.790Z,35.12
2022-07-28T14:48:47.444Z,35.02
2022-07-28T14:51:13.411Z,34.84
2022-07-28T14:53:43.387Z,34.55
2022-07-28T14:56:17.929Z,34.07
2022-07-28T14:58:43.873Z,34.32
2022-07-28T15:01:09.844Z,33.89
2022-07-28T15:03:36.599Z,33.68
2022-07-28T15:06:02.685Z,33.48
2022-07-28T15:08:29.428Z,33.80
2022-07-28T15:10:55.599Z,34.39
2022-07-28T15:13:21.551Z,34.80
2022-07-28T15:15:47.581Z,34.41
2022-07-28T15:18:14.554Z,34.36
2022-07-28T15:20:40.519Z,34.72
2022-07-28T15:23:06.495Z,35.00
2022-07-28T15:25:32.491Z,33.78
2022-07-28T15:27:58.587Z,33.48
2022-07-28T15:30:24.531Z,33.89
2022-07-28T15:32:56.904Z,33.88
2022-07-28T15:35:23.215Z,33.47
2022-07-28T15:37:49.203Z,34.14
2022-07-28T15:40:15.189Z,34.96
2022-07-28T15:42:41.163Z,35.60
2022-07-28T15:45:07.124Z,35.26
2022-07-28T15:47:33.109Z,35.73
2022-07-28T15:50:00.789Z,35.25
2022-07-28T15:52:27.646Z,35.35
2022-07-28T15:54:54.378Z,34.96
2022-07-28T15:57:20.385Z,34.61
2022-07-28T15:59:50.157Z,34.81
2022-07-28T16:02:17.693Z,34.45
2022-07-28T16:04:51.467Z,34.44
2022-07-28T16:07:20.267Z,34.50
2022-07-28T16:09:48.436Z,35.09
2022-07-28T16:12:14.601Z,35.24
2022-07-28T16:14:41.888Z,34.83
2022-07-28T16:17:08.110Z,35.50
2022-07-28T16:19:48.649Z,35.21
2022-07-28T16:22:15.777Z,34.22
2022-07-28T16:24:41.706Z,33.69
2022-07-28T16:27:07.643Z,33.92
2022-07-28T16:29:33.631Z,34.18
2022-07-28T16:31:59.580Z,34.32
2022-07-28T16:34:25.529Z,33.91
2022-07-28T16:36:51.532Z,33.26
2022-07-28T16:39:17.484Z,33.41
2022-07-28T16:41:47.441Z,33.59
2022-07-28T16:44:14.438Z,33.41
2022-07-28T16:46:41.388Z,33.02
2022-07-28T16:49:07.428Z,32.80
2022-07-28T16:51:34.093Z,32.71
2022-07-28T16:54:00.031Z,33.21
2022-07-28T16:56:25.971Z,33.47
2022-07-28T16:58:51.956Z,33.31
2022-07-28T17:01:17.938Z,33.59
2022-07-28T17:03:45.447Z,33.30
2022-07-28T17:06:11.485Z,33.29
2022-07-28T17:08:37.440Z,33.22
2022-07-28T17:11:03.380Z,32.75
2022-07-28T17:13:31.503Z,32.91
2022-07-28T17:15:57.502Z,33.54
2022-07-28T17:18:23.480Z,33.97
2022-07-28T17:20:49.463Z,33.73
2022-07-28T17:23:15.398Z,32.90
2022-07-28T17:26:35.542Z,32.69
2022-07-28T17:28:27.946Z,32.55
2022-07-28T17:30:53.969Z,33.01
2022-07-28T17:33:20.654Z,32.66
2022-07-28T17:35:46.631Z,32.64
2022-07-28T17:38:12.638Z,32.73
2022-07-28T17:40:38.584Z,32.65
2022-07-28T17:43:06.113Z,32.54
2022-07-28T17:45:32.369Z,32.63
2022-07-28T17:47:59.016Z,32.59
2022-07-28T17:50:25.034Z,32.49
2022-07-28T17:52:50.988Z,32.34
2022-07-28T17:55:16.951Z,32.47
2022-07-28T17:57:46.032Z,32.24
2022-07-28T18:00:12.942Z,32.23
2022-07-28T18:02:38.948Z,32.14
2022-07-28T18:05:06.331Z,32.04
2022-07-28T18:07:48.572Z,31.86
2022-07-28T18:10:17.325Z,31.73
2022-07-28T18:12:50.856Z,31.55
2022-07-28T18:15:16.806Z,31.51
2022-07-28T18:17:54.860Z,31.55
2022-07-28T18:20:21.770Z,31.31
2022-07-28T18:22:47.791Z,31.10
2022-07-28T18:25:13.724Z,31.22
2022-07-28T18:27:39.760Z,31.33
2022-07-28T18:30:07.159Z,31.00
2022-07-28T18:32:33.099Z,31.01
2022-07-28T18:34:59.063Z,30.94
2022-07-28T18:37:25.050Z,30.82
2022-07-28T18:39:50.997Z,30.74
2022-07-28T18:42:16.940Z,30.65
2022-07-28T18:44:44.602Z,30.57
2022-07-28T18:47:11.263Z,30.55
2022-07-28T18:49:38.156Z,30.52
2022-07-28T18:52:04.236Z,30.36
2022-07-28T18:54:30.341Z,30.17
2022-07-28T18:56:56.418Z,30.25
2022-07-28T18:59:22.407Z,29.97
2022-07-28T19:01:48.426Z,29.88
2022-07-28T19:04:14.604Z,29.75
2022-07-28T19:06:40.811Z,29.84
2022-07-28T19:09:06.866Z,29.69
2022-07-28T19:11:32.806Z,29.61
2022-07-28T19:13:58.887Z,29.55
2022-07-28T19:16:24.922Z,29.47
2022-07-28T19:18:50.920Z,29.40
2022-07-28T19:21:18.318Z,29.31
2022-07-28T19:23:44.278Z,29.39
2022-07-28T19:26:10.213Z,29.26
2022-07-28T19:28:36.200Z,29.23
2022-07-28T19:31:10.644Z,29.18
2022-07-28T19:33:36.874Z,29.00
2022-07-28T19:36:08.896Z,29.01
2022-07-28T19:38:34.843Z,29.05
2022-07-28T19:41:00.823Z,29.03
2022-07-28T19:43:26.900Z,29.03
2022-07-28T19:45:52.901Z,29.17
2022-07-28T19:48:20.233Z,29.10
2022-07-28T19:50:50.894Z,28.93
2022-07-28T19:53:17.232Z,28.78
2022-07-28T19:55:43.247Z,28.82
2022-07-28T19:58:16.778Z,28.87
2022-07-28T20:00:42.748Z,28.96
2022-07-28T20:03:13.569Z,28.84
2022-07-28T20:05:54.681Z,28.60
2022-07-28T20:11:11.293Z,28.47
2022-07-28T20:13:37.291Z,28.43
2022-07-28T20:16:03.237Z,28.33
2022-07-28T20:18:29.184Z,28.51
2022-07-28T20:20:55.337Z,28.24
2022-07-28T20:23:21.297Z,28.35
2022-07-28T20:25:48.037Z,28.48
2022-07-28T20:28:14.013Z,28.33
2022-07-28T20:30:40.112Z,28.48
2022-07-28T20:33:06.117Z,28.44
2022-07-28T20:35:32.862Z,28.28
2022-07-28T20:37:58.837Z,28.37
2022-07-28T20:40:24.776Z,28.56
2022-07-28T20:42:53.131Z,28.34
2022-07-28T20:45:19.422Z,28.38
2022-07-28T20:47:45.373Z,28.47
2022-07-28T20:50:11.376Z,28.37
2022-07-28T20:52:37.331Z,28.27
2022-07-28T20:55:03.270Z,28.20
2022-07-28T20:57:29.340Z,28.09
2022-07-28T20:59:55.275Z,28.09
2022-07-28T21:02:22.018Z,28.09
2022-07-28T21:04:50.274Z,28.03
2022-07-28T21:07:16.614Z,27.74
2022-07-28T21:10:02.958Z,27.76
2022-07-28T21:12:28.897Z,27.66
2022-07-28T21:14:54.882Z,27.54
2022-07-28T21:17:20.901Z,27.40
2022-07-28T21:19:51.329Z,27.36
2022-07-28T21:22:19.181Z,27.53
2022-07-28T21:24:45.166Z,27.59
2022-07-28T21:27:11.855Z,27.53
2022-07-28T21:29:37.809Z,27.41
2022-07-28T21:32:05.955Z,27.35
2022-07-28T21:34:32.113Z,27.35
2022-07-28T21:37:00.318Z,27.19
2022-07-28T21:39:27.462Z,27.19
2022-07-28T21:41:53.404Z,27.15
2022-07-28T21:44:19.358Z,27.05
2022-07-28T21:46:45.360Z,27.09
2022-07-28T21:49:11.406Z,27.09
2022-07-28T21:51:37.392Z,27.01
2022-07-28T21:54:03.416Z,27.02
2022-07-28T21:56:29.405Z,26.94
2022-07-28T21:58:55.343Z,26.90
2022-07-28T22:01:21.381Z,26.98
2022-07-28T22:03:47.344Z,26.84
2022-07-28T22:06:13.280Z,26.80
2022-07-28T22:08:39.267Z,26.84
2022-07-28T22:11:05.217Z,26.81
2022-07-28T22:13:31.164Z,26.74
2022-07-28T22:15:57.140Z,26.66
2022-07-28T22:18:23.074Z,26.57
2022-07-28T22:20:49.010Z,26.63
2022-07-28T22:23:28.633Z,26.64
2022-07-28T22:25:55.336Z,26.07
2022-07-28T22:28:29.993Z,26.39
2022-07-28T22:30:56.485Z,26.38
2022-07-28T22:33:23.329Z,26.34
2022-07-28T22:35:49.283Z,26.39
2022-07-28T22:38:15.221Z,26.26
2022-07-28T22:40:41.199Z,26.36
2022-07-28T22:43:07.137Z,26.38
2022-07-28T22:45:49.539Z,26.53
2022-07-28T22:48:17.427Z,26.56
2022-07-28T22:50:43.369Z,26.49
2022-07-28T22:53:09.317Z,26.27
2022-07-28T22:58:19.663Z,26.35
2022-07-28T23:00:45.792Z,26.31
2022-07-28T23:03:15.153Z,26.58
2022-07-28T23:05:41.969Z,26.50
2022-07-28T23:08:08.004Z,26.56
2022-07-28T23:10:36.577Z,26.46
2022-07-28T23:13:02.580Z,26.41
2022-07-28T23:15:39.751Z,26.19
2022-07-28T23:18:07.413Z,26.16
2022-07-28T23:20:33.454Z,26.36
2022-07-28T23:22:59.452Z,26.20
2022-07-28T23:25:25.462Z,26.29
2022-07-28T23:27:51.489Z,26.16
2022-07-28T23:30:17.470Z,26.11
2022-07-28T23:32:43.453Z,26.16
2022-07-28T23:35:09.508Z,26.37
2022-07-28T23:37:35.500Z,26.50
2022-07-28T23:40:01.843Z,26.39
2022-07-28T23:42:27.880Z,26.45
2022-07-28T23:44:53.880Z,26.48
2022-07-28T23:47:19.914Z,26.46
2022-07-28T23:49:45.980Z,26.39
2022-07-28T23:52:11.962Z,26.40
2022-07-28T23:54:37.969Z,26.30
2022-07-28T23:57:04.013Z,26.35
2022-07-28T23:59:30.031Z,26.43
